Auburn, New Hampshire
Current Conditions -  °F | °C
As of 7:53 AM on Thursday 30 Oct 2014 (Local Time) from KMHT Reporting Station
Broken Clouds Broken Clouds  
Wind Chill:   Ceiling: 12000
Heat Index:   Visibility: 10mi
Dew Point:   Wind: 0mph
Humidity: 86%   Direction: NA
Pressure: 29.92"   Gusts: NA
Location:  43°N, 71.35°W
Report Text: KMHT 301153Z 00000KT 10SM FEW002 FEW070 BKN120 03/01 A2992 RMK AO2 SLP145 70008 T00330011 10089 20028 51011
Loading
Personal Weather Stations






























Interactive Weather Map
Tropical Storm Tracking
New forecast layout! Learn more

10-Day Weather Forecast

Advertisements
Track Severe Weather on mobile